createdAt,value
2019-04-14T00:00:08.039Z,0.44
2019-04-14T00:01:08.631Z,0.50
2019-04-14T00:02:08.017Z,0.50
2019-04-14T00:03:08.666Z,0.36
2019-04-14T00:04:07.966Z,0.44
2019-04-14T00:05:08.312Z,0.42
2019-04-14T00:06:09.018Z,0.41
2019-04-14T00:07:08.047Z,0.39
2019-04-14T00:08:08.862Z,0.36
2019-04-14T00:09:07.938Z,0.36
2019-04-14T00:10:09.071Z,0.33
2019-04-14T00:11:08.301Z,0.33
2019-04-14T00:12:09.015Z,0.33
2019-04-14T00:13:08.937Z,0.28
2019-04-14T00:14:07.878Z,0.24
2019-04-14T00:15:20.187Z,0.24
2019-04-14T00:16:09.576Z,0.28
2019-04-14T00:17:08.756Z,0.17
2019-04-14T00:18:07.841Z,0.21
2019-04-14T00:19:08.755Z,0.23
2019-04-14T00:20:07.792Z,0.23
2019-04-14T00:21:08.712Z,0.18
2019-04-14T00:22:07.766Z,0.24
2019-04-14T00:23:08.763Z,0.21
2019-04-14T00:24:07.744Z,0.11
2019-04-14T00:25:08.667Z,0.07
2019-04-14T00:26:07.744Z,0.04
2019-04-14T00:27:08.520Z,0.07
2019-04-14T00:28:07.729Z,0.11
2019-04-14T00:29:08.869Z,0.10
2019-04-14T00:30:07.677Z,0.10
2019-04-14T00:31:08.705Z,0.15
2019-04-14T00:32:07.652Z,-0.05
2019-04-14T00:33:08.465Z,0.03
2019-04-14T00:34:07.637Z,0.07
2019-04-14T00:35:08.247Z,0.03
2019-04-14T00:36:08.659Z,0.14
2019-04-14T00:37:07.788Z,0.00
2019-04-14T00:38:08.491Z,0.03
2019-04-14T00:39:07.613Z,0.00
2019-04-14T00:40:08.318Z,-0.08
2019-04-14T00:41:07.580Z,-0.08
2019-04-14T00:42:08.271Z,-0.04
2019-04-14T00:43:07.552Z,-0.15
2019-04-14T00:44:07.868Z,-0.10
2019-04-14T00:45:07.552Z,-0.19
2019-04-14T00:46:08.005Z,-0.18
2019-04-14T00:47:07.493Z,-0.18
2019-04-14T00:48:11.778Z,-0.25
2019-04-14T00:49:09.312Z,-0.19
2019-04-14T00:50:07.999Z,-0.28
2019-04-14T00:51:07.444Z,-0.21
2019-04-14T00:52:07.947Z,-0.26
2019-04-14T00:53:07.723Z,-0.16
2019-04-14T00:54:08.631Z,-0.28
2019-04-14T00:55:07.633Z,-0.31
2019-04-14T00:56:08.365Z,-0.31
2019-04-14T00:57:07.378Z,-0.28
2019-04-14T00:58:08.139Z,-0.28
2019-04-14T00:59:07.357Z,-0.37
2019-04-14T01:00:08.207Z,-0.36
2019-04-14T01:01:07.347Z,-0.37
2019-04-14T01:02:07.744Z,-0.37
2019-04-14T01:03:07.308Z,-0.37
2019-04-14T01:04:07.689Z,-0.37
2019-04-14T01:05:07.312Z,-0.37
2019-04-14T01:06:07.651Z,-0.37
2019-04-14T01:07:07.263Z,-0.42
2019-04-14T01:08:07.430Z,-0.39
2019-04-14T01:09:08.490Z,-0.44
2019-04-14T01:10:08.174Z,-0.46
2019-04-14T01:11:07.420Z,-0.42
2019-04-14T01:12:08.184Z,-0.44
2019-04-14T01:13:10.735Z,-0.42
2019-04-14T01:14:08.015Z,-0.42
2019-04-14T01:15:07.236Z,-0.44
2019-04-14T01:16:13.898Z,-0.57
2019-04-14T01:17:09.048Z,-0.43
2019-04-14T01:18:07.900Z,-0.37
2019-04-14T01:19:07.175Z,-0.43
2019-04-14T01:20:07.932Z,-0.39
2019-04-14T01:21:07.131Z,-0.44
2019-04-14T01:22:07.437Z,-0.40
2019-04-14T01:23:08.358Z,-0.44
2019-04-14T01:24:07.529Z,-0.43
2019-04-14T01:25:07.085Z,-0.34
2019-04-14T01:26:07.224Z,-0.40
2019-04-14T01:27:08.123Z,-0.29
2019-04-14T01:28:07.081Z,-0.31
2019-04-14T01:29:08.018Z,-0.18
2019-04-14T01:30:07.007Z,-0.23
2019-04-14T01:31:07.667Z,-0.21
2019-04-14T01:32:06.991Z,-0.26
2019-04-14T01:33:07.603Z,-0.28
2019-04-14T01:34:06.964Z,-0.18
2019-04-14T01:35:07.479Z,-0.29
2019-04-14T01:36:08.066Z,-0.31
2019-04-14T01:37:07.291Z,-0.31
2019-04-14T01:38:07.991Z,-0.21
2019-04-14T01:39:07.073Z,-0.25
2019-04-14T01:40:07.564Z,-0.25
2019-04-14T01:41:06.948Z,-0.25
2019-04-14T01:42:07.151Z,-0.21
2019-04-14T01:43:08.009Z,-0.22
2019-04-14T01:44:06.935Z,-0.15
2019-04-14T01:45:07.909Z,-0.23
2019-04-14T01:46:14.756Z,-0.19
2019-04-14T01:47:07.822Z,-0.26
2019-04-14T01:48:06.816Z,-0.25
2019-04-14T01:49:07.250Z,-0.25
2019-04-14T01:50:06.828Z,-0.21
2019-04-14T01:51:07.109Z,-0.26
2019-04-14T01:52:06.795Z,-0.25
2019-04-14T01:53:07.542Z,-0.34
2019-04-14T01:54:06.783Z,-0.21
2019-04-14T01:55:07.005Z,-0.31
2019-04-14T01:56:07.933Z,-0.29
2019-04-14T01:57:06.733Z,-0.28
2019-04-14T01:58:07.766Z,-0.37
2019-04-14T01:59:06.696Z,-0.40
2019-04-14T02:00:07.540Z,-0.37
2019-04-14T02:01:06.670Z,-0.44
2019-04-14T02:02:07.537Z,-0.43
2019-04-14T02:03:06.672Z,-0.55
2019-04-14T02:04:07.311Z,-0.61
2019-04-14T02:05:06.628Z,-0.49
2019-04-14T02:06:07.138Z,-0.52
2019-04-14T02:07:06.616Z,-0.54
2019-04-14T02:08:06.945Z,-0.51
2019-04-14T02:09:07.534Z,-0.55
2019-04-14T02:10:06.575Z,-0.47
2019-04-14T02:11:07.314Z,-0.43
2019-04-14T02:12:06.595Z,-0.49
2019-04-14T02:13:07.177Z,-0.54
2019-04-14T02:14:06.532Z,-0.47
2019-04-14T02:15:07.000Z,-0.49
2019-04-14T02:16:18.813Z,-0.51
2019-04-14T02:17:08.179Z,-0.43
2019-04-14T02:18:07.716Z,-0.37
2019-04-14T02:19:06.756Z,-0.58
2019-04-14T02:20:07.701Z,-0.52
2019-04-14T02:21:06.548Z,-0.52
2019-04-14T02:22:07.324Z,-0.55
2019-04-14T02:23:06.453Z,-0.52
2019-04-14T02:24:07.117Z,-0.54
2019-04-14T02:25:07.664Z,-0.55
2019-04-14T02:26:06.938Z,-0.54
2019-04-14T02:27:07.627Z,-0.58
2019-04-14T02:28:06.920Z,-0.55
2019-04-14T02:29:06.364Z,-0.55
2019-04-14T02:30:08.981Z,-0.52
2019-04-14T02:31:24.601Z,-0.57
2019-04-14T02:32:33.760Z,-0.47
2019-04-14T02:34:48.086Z,-0.46
2019-04-14T02:35:37.262Z,-0.51
2019-04-14T02:37:34.704Z,-0.46
2019-04-14T02:38:41.157Z,-0.43
2019-04-14T02:40:36.432Z,-0.58
2019-04-14T02:41:42.752Z,-0.57
2019-04-14T02:42:46.741Z,-0.51
2019-04-14T02:43:45.349Z,-0.55
2019-04-14T02:44:37.459Z,-0.52
2019-04-14T02:45:40.602Z,-0.60
2019-04-14T02:46:38.331Z,-0.51
2019-04-14T02:48:50.769Z,-0.52
2019-04-14T02:50:33.551Z,-0.61
2019-04-14T02:52:34.924Z,-0.61
2019-04-14T02:53:45.947Z,-0.61
2019-04-14T02:54:45.896Z,-0.61
2019-04-14T02:55:38.372Z,-0.69
2019-04-14T02:57:30.276Z,-0.60
2019-04-14T02:58:42.130Z,-0.60
2019-04-14T02:59:35.546Z,-0.61
2019-04-14T03:00:49.047Z,-0.61
2019-04-14T03:01:55.241Z,-0.60
2019-04-14T03:02:48.701Z,-0.58
2019-04-14T03:03:33.560Z,-0.57
2019-04-14T03:04:35.614Z,-0.61
2019-04-14T03:05:35.840Z,-0.57
2019-04-14T03:06:50.203Z,-0.60
2019-04-14T03:08:49.094Z,-0.61
2019-04-14T03:10:32.042Z,-0.57
2019-04-14T03:11:34.461Z,-0.58
2019-04-14T03:12:34.656Z,-0.62
2019-04-14T03:13:35.276Z,-0.65
2019-04-14T03:15:45.397Z,-0.75
2019-04-14T03:16:47.111Z,-0.78
2019-04-14T03:18:11.646Z,-0.76
2019-04-14T03:19:35.549Z,-0.85
2019-04-14T03:22:37.057Z,-0.99
2019-04-14T03:23:53.353Z,-1.04
2019-04-14T03:24:32.935Z,-0.99
2019-04-14T03:25:22.521Z,-0.98
2019-04-14T03:26:35.316Z,-0.89
2019-04-14T03:29:36.429Z,-0.67
2019-04-14T03:31:59.750Z,-0.70
2019-04-14T03:33:00.647Z,-0.60
2019-04-14T03:37:22.006Z,-0.78
2019-04-14T03:38:55.015Z,-0.70
2019-04-14T03:39:46.565Z,-0.69
2019-04-14T03:40:34.013Z,-0.72
2019-04-14T03:41:29.249Z,-0.79
2019-04-14T03:42:41.661Z,-0.73
2019-04-14T03:43:33.204Z,-0.70
2019-04-14T03:44:38.738Z,-0.78
2019-04-14T03:46:37.014Z,-0.75
2019-04-14T03:50:31.470Z,-0.80
2019-04-14T03:51:43.013Z,-0.86
2019-04-14T03:52:41.564Z,-0.86
2019-04-14T03:54:28.827Z,-1.02
2019-04-14T03:55:20.262Z,-1.02
2019-04-14T03:56:09.227Z,-0.94
2019-04-14T03:57:06.395Z,-1.01
2019-04-14T03:58:05.971Z,-1.05
2019-04-14T03:59:06.395Z,-1.09
2019-04-14T04:00:05.404Z,-1.05
2019-04-14T04:01:06.184Z,-1.07
2019-04-14T04:02:05.442Z,-1.13
2019-04-14T04:03:06.358Z,-1.17
2019-04-14T04:04:05.424Z,-1.17
2019-04-14T04:05:06.447Z,-1.22
2019-04-14T04:06:05.379Z,-1.19
2019-04-14T04:07:06.217Z,-1.25
2019-04-14T04:08:05.280Z,-1.23
2019-04-14T04:09:06.279Z,-1.27
2019-04-14T04:10:05.283Z,-1.30
2019-04-14T04:11:06.217Z,-1.30
2019-04-14T04:12:05.410Z,-1.30
2019-04-14T04:13:06.226Z,-1.41
2019-04-14T04:14:05.325Z,-1.28
2019-04-14T04:15:06.198Z,-1.25
2019-04-14T04:16:05.191Z,-1.28
2019-04-14T04:17:05.751Z,-1.25
2019-04-14T04:18:05.194Z,-1.20
2019-04-14T04:19:10.229Z,-1.23
2019-04-14T04:20:06.745Z,-1.28
2019-04-14T04:21:05.290Z,-1.27
2019-04-14T04:22:06.312Z,-1.27
2019-04-14T04:23:05.264Z,-1.27
2019-04-14T04:24:06.365Z,-1.25
2019-04-14T04:25:05.174Z,-1.37
2019-04-14T04:26:06.169Z,-1.41
2019-04-14T04:27:05.071Z,-1.28
2019-04-14T04:28:06.024Z,-1.37
2019-04-14T04:29:05.047Z,-1.41
2019-04-14T04:30:05.975Z,-1.31
2019-04-14T04:31:05.025Z,-1.43
2019-04-14T04:32:05.713Z,-1.40
2019-04-14T04:33:05.021Z,-1.43
2019-04-14T04:34:05.391Z,-1.52
2019-04-14T04:35:04.977Z,-1.37
2019-04-14T04:36:05.338Z,-1.51
2019-04-14T04:37:06.055Z,-1.48
2019-04-14T04:38:05.188Z,-1.48
2019-04-14T04:39:06.016Z,-1.38
2019-04-14T04:40:05.069Z,-1.43
2019-04-14T04:41:05.877Z,-1.55
2019-04-14T04:42:04.932Z,-1.46
2019-04-14T04:43:05.902Z,-1.51
2019-04-14T04:44:05.039Z,-1.52
2019-04-14T04:45:05.990Z,-1.54
2019-04-14T04:46:04.947Z,-1.55
2019-04-14T04:47:05.683Z,-1.49
2019-04-14T04:48:04.833Z,-1.62
2019-04-14T04:49:11.684Z,-1.46
2019-04-14T04:50:06.539Z,-1.51
2019-04-14T04:51:05.053Z,-1.64
2019-04-14T04:52:04.788Z,-1.55
2019-04-14T04:53:04.909Z,-1.59
2019-04-14T04:54:05.895Z,-1.55
2019-04-14T04:55:04.754Z,-1.64
2019-04-14T04:56:05.762Z,-1.52
2019-04-14T04:57:04.736Z,-1.59
2019-04-14T04:58:05.638Z,-1.61
2019-04-14T04:59:05.446Z,-1.59
2019-04-14T05:00:04.945Z,-1.67
2019-04-14T05:01:05.636Z,-1.62
2019-04-14T05:02:04.778Z,-1.59
2019-04-14T05:03:05.755Z,-1.61
2019-04-14T05:04:04.671Z,-1.54
2019-04-14T05:05:05.559Z,-1.58
2019-04-14T05:06:04.707Z,-1.59
2019-04-14T05:07:05.581Z,-1.51
2019-04-14T05:08:04.635Z,-1.56
2019-04-14T05:09:05.637Z,-1.51
2019-04-14T05:10:04.803Z,-1.55
2019-04-14T05:11:05.408Z,-1.54
2019-04-14T05:12:04.580Z,-1.52
2019-04-14T05:13:05.162Z,-1.46
2019-04-14T05:14:04.546Z,-1.54
2019-04-14T05:15:05.315Z,-1.49
2019-04-14T05:16:04.529Z,-1.43
2019-04-14T05:17:05.734Z,-1.34
2019-04-14T05:18:04.976Z,-1.35
2019-04-14T05:19:14.901Z,-1.40
2019-04-14T05:20:05.478Z,-1.41
2019-04-14T05:21:04.485Z,-1.34
2019-04-14T05:22:04.938Z,-1.30
2019-04-14T05:23:04.475Z,-1.35
2019-04-14T05:24:04.965Z,-1.23
2019-04-14T05:25:05.659Z,-1.33
2019-04-14T05:26:04.879Z,-1.25
2019-04-14T05:27:05.630Z,-1.28
2019-04-14T05:28:04.834Z,-1.28
2019-04-14T05:29:05.596Z,-1.19
2019-04-14T05:30:04.716Z,-1.25
2019-04-14T05:31:05.357Z,-1.20
2019-04-14T05:32:04.479Z,-1.25
2019-04-14T05:33:05.267Z,-1.22
2019-04-14T05:34:04.440Z,-1.19
2019-04-14T05:35:05.204Z,-1.16
2019-04-14T05:36:04.310Z,-1.15
2019-04-14T05:37:04.995Z,-1.15
2019-04-14T05:38:04.309Z,-1.16
2019-04-14T05:39:04.641Z,-1.16
2019-04-14T05:40:04.268Z,-1.07
2019-04-14T05:41:04.734Z,-1.05
2019-04-14T05:42:09.460Z,-0.98
2019-04-14T05:43:05.241Z,-1.01
2019-04-14T05:44:05.275Z,-1.07
2019-04-14T05:45:04.516Z,-1.05
2019-04-14T05:46:05.467Z,-1.02
2019-04-14T05:47:04.432Z,-0.94
2019-04-14T05:48:05.262Z,-0.85
2019-04-14T05:49:04.420Z,-0.75
2019-04-14T05:50:05.134Z,-0.70
2019-04-14T05:51:04.242Z,-0.60
2019-04-14T05:52:04.132Z,-0.57
2019-04-14T05:53:04.404Z,-0.58
2019-04-14T05:54:04.107Z,-0.49
2019-04-14T05:55:04.517Z,-0.36
2019-04-14T05:56:04.087Z,-0.22
2019-04-14T05:57:04.407Z,-0.21
2019-04-14T05:58:04.066Z,-0.23
2019-04-14T05:59:04.404Z,-0.22
2019-04-14T06:00:04.046Z,-0.40
2019-04-14T06:01:04.774Z,-0.39
2019-04-14T06:02:04.794Z,-0.34
2019-04-14T06:03:04.023Z,-0.29
2019-04-14T06:04:04.667Z,-0.37
2019-04-14T06:05:03.988Z,-0.28
2019-04-14T06:06:03.980Z,-0.31
2019-04-14T06:07:03.973Z,-0.23
2019-04-14T06:08:03.985Z,-0.26
2019-04-14T06:09:03.941Z,-0.23
2019-04-14T06:10:03.939Z,-0.10
2019-04-14T06:11:03.929Z,-0.16
2019-04-14T06:12:03.946Z,-0.08
2019-04-14T06:13:03.930Z,-0.07
2019-04-14T06:14:03.895Z,-0.01
2019-04-14T06:15:03.902Z,0.02
2019-04-14T06:16:03.909Z,0.02
2019-04-14T06:17:03.855Z,0.07
2019-04-14T06:18:03.850Z,0.13
2019-04-14T06:19:03.862Z,0.17
2019-04-14T06:20:03.824Z,0.20
2019-04-14T06:21:03.813Z,0.23
2019-04-14T06:22:03.840Z,0.38
2019-04-14T06:23:03.787Z,0.46
2019-04-14T06:24:03.806Z,0.41
2019-04-14T06:25:03.804Z,0.38
2019-04-14T06:26:03.766Z,0.53
2019-04-14T06:27:03.754Z,0.47
2019-04-14T06:28:03.747Z,0.53
2019-04-14T06:29:03.764Z,0.49
2019-04-14T06:30:03.707Z,0.57
2019-04-14T06:31:03.697Z,0.58
2019-04-14T06:32:03.695Z,0.60
2019-04-14T06:33:03.699Z,0.76
2019-04-14T06:34:03.698Z,0.75
2019-04-14T06:35:03.653Z,0.75
2019-04-14T06:36:03.663Z,0.80
2019-04-14T06:37:03.631Z,0.83
2019-04-14T06:38:05.817Z,0.88
2019-04-14T06:39:03.632Z,0.93
2019-04-14T06:40:03.601Z,0.94
2019-04-14T06:41:03.589Z,1.05
2019-04-14T06:42:03.627Z,1.05
2019-04-14T06:43:03.569Z,1.04
2019-04-14T06:44:03.552Z,1.12
2019-04-14T06:45:03.544Z,1.05
2019-04-14T06:46:03.556Z,1.15
2019-04-14T06:47:03.527Z,1.23
2019-04-14T06:48:03.511Z,1.22
2019-04-14T06:49:03.501Z,1.26
2019-04-14T06:50:03.488Z,1.16
2019-04-14T06:51:03.502Z,1.29
2019-04-14T06:52:03.470Z,1.48
2019-04-14T06:53:03.477Z,1.48
2019-04-14T06:54:03.441Z,1.51
2019-04-14T06:55:03.445Z,1.42
2019-04-14T06:56:03.419Z,1.52
2019-04-14T06:57:03.409Z,1.51
2019-04-14T06:58:03.422Z,1.48
2019-04-14T06:59:03.412Z,1.55
2019-04-14T07:00:03.375Z,1.51
2019-04-14T07:01:03.389Z,1.62
2019-04-14T07:02:03.379Z,1.59
2019-04-14T07:03:03.357Z,1.72
2019-04-14T07:04:03.334Z,1.79
2019-04-14T07:05:03.334Z,1.91
2019-04-14T07:06:03.307Z,1.93
2019-04-14T07:07:03.299Z,2.05
2019-04-14T07:08:03.308Z,2.17
2019-04-14T07:09:03.273Z,2.17
2019-04-14T07:10:03.288Z,2.07
2019-04-14T07:11:03.276Z,2.24
2019-04-14T07:12:03.341Z,2.27
2019-04-14T07:13:03.229Z,2.30
2019-04-14T07:14:03.221Z,2.34
2019-04-14T07:15:03.352Z,2.36
2019-04-14T07:16:03.196Z,2.54
2019-04-14T07:17:03.185Z,2.57
2019-04-14T07:18:03.214Z,2.67
2019-04-14T07:19:03.163Z,2.78
2019-04-14T07:20:03.153Z,2.87
2019-04-14T07:21:03.144Z,2.92
2019-04-14T07:22:03.133Z,2.74
2019-04-14T07:23:03.134Z,2.89
2019-04-14T07:24:03.113Z,2.97
2019-04-14T07:25:03.128Z,3.11
2019-04-14T07:26:03.087Z,3.02
2019-04-14T07:27:03.075Z,3.24
2019-04-14T07:28:03.065Z,3.35
2019-04-14T07:29:03.052Z,3.51
2019-04-14T07:30:03.065Z,3.60
2019-04-14T07:31:03.038Z,3.50
2019-04-14T07:32:03.052Z,3.39
2019-04-14T07:33:03.011Z,3.57
2019-04-14T07:34:02.995Z,3.60
2019-04-14T07:35:03.016Z,3.68
2019-04-14T07:36:02.989Z,3.83
2019-04-14T07:37:02.978Z,3.57
2019-04-14T07:38:02.969Z,3.57
2019-04-14T07:39:02.962Z,3.65
2019-04-14T07:40:02.955Z,3.83
2019-04-14T07:41:02.921Z,4.00
2019-04-14T07:42:02.936Z,3.86
2019-04-14T07:43:02.896Z,3.83
2019-04-14T07:44:02.883Z,3.93
2019-04-14T07:45:02.877Z,3.93
2019-04-14T07:46:02.879Z,3.66
2019-04-14T07:47:02.875Z,3.78
2019-04-14T07:48:02.840Z,3.87
2019-04-14T07:49:02.831Z,4.02
2019-04-14T07:50:14.000Z,4.20
2019-04-14T07:51:03.804Z,4.54
2019-04-14T07:52:02.824Z,4.58
2019-04-14T07:53:02.784Z,4.58
2019-04-14T07:54:02.775Z,4.67
2019-04-14T07:55:02.765Z,4.52
2019-04-14T07:56:02.784Z,4.47
2019-04-14T07:57:02.745Z,4.51
2019-04-14T07:58:02.758Z,4.51
2019-04-14T07:59:02.719Z,4.52
2019-04-14T08:00:02.712Z,4.44
2019-04-14T08:01:02.709Z,4.73
2019-04-14T08:02:02.684Z,4.97
2019-04-14T08:03:02.694Z,4.91
2019-04-14T08:04:02.718Z,4.96
2019-04-14T08:05:02.650Z,5.06
2019-04-14T08:06:02.658Z,5.13
2019-04-14T08:07:02.629Z,5.24
2019-04-14T08:08:02.629Z,5.12
2019-04-14T08:09:02.622Z,5.06
2019-04-14T08:10:02.592Z,5.09
2019-04-14T08:11:02.581Z,5.27
2019-04-14T08:12:02.589Z,5.15
2019-04-14T08:13:02.585Z,5.20
2019-04-14T08:14:02.577Z,5.18
2019-04-14T08:15:02.537Z,5.27
2019-04-14T08:16:02.523Z,5.22
2019-04-14T08:17:02.521Z,5.24
2019-04-14T08:18:02.532Z,5.04
2019-04-14T08:19:02.492Z,5.02
2019-04-14T08:20:02.482Z,5.03
2019-04-14T08:21:02.496Z,5.17
2019-04-14T08:22:02.457Z,5.42
2019-04-14T08:23:02.444Z,5.22
2019-04-14T08:24:02.440Z,5.20
2019-04-14T08:25:02.425Z,5.30
2019-04-14T08:26:02.441Z,5.39
2019-04-14T08:27:02.404Z,5.57
2019-04-14T08:28:02.411Z,5.58
2019-04-14T08:29:02.424Z,5.65
2019-04-14T08:30:02.367Z,5.85
2019-04-14T08:31:02.356Z,5.83
2019-04-14T08:32:02.353Z,5.78
2019-04-14T08:33:02.352Z,5.82
2019-04-14T08:34:02.397Z,5.86
2019-04-14T08:35:02.313Z,5.93
2019-04-14T08:36:02.339Z,5.99
2019-04-14T08:37:02.312Z,6.00
2019-04-14T08:38:02.278Z,6.00
2019-04-14T08:39:02.269Z,6.12
2019-04-14T08:40:02.254Z,6.03
2019-04-14T08:41:02.244Z,6.09
2019-04-14T08:42:02.268Z,6.00
2019-04-14T08:43:02.265Z,6.04
2019-04-14T08:44:02.213Z,5.97
2019-04-14T08:45:02.203Z,5.91
2019-04-14T08:46:02.189Z,6.03
2019-04-14T08:47:02.201Z,6.01
2019-04-14T08:48:02.167Z,6.09
2019-04-14T08:49:02.177Z,6.27
2019-04-14T08:50:02.153Z,6.34
2019-04-14T08:51:02.136Z,6.28
2019-04-14T08:52:02.121Z,6.40
2019-04-14T08:53:02.133Z,6.52
2019-04-14T08:54:02.230Z,6.76
2019-04-14T08:55:02.089Z,6.97
2019-04-14T08:56:02.095Z,6.89
2019-04-14T08:57:02.066Z,6.97
2019-04-14T08:58:04.165Z,7.02
2019-04-14T08:59:02.041Z,7.07
2019-04-14T09:00:02.098Z,7.35
2019-04-14T09:01:02.028Z,7.09
2019-04-14T09:02:02.023Z,7.23
2019-04-14T09:03:02.019Z,7.21
2019-04-14T09:04:01.987Z,7.03
2019-04-14T09:05:01.975Z,7.02
2019-04-14T09:06:01.965Z,7.27
2019-04-14T09:07:01.951Z,7.40
2019-04-14T09:08:01.955Z,7.45
2019-04-14T09:09:01.961Z,7.21
2019-04-14T09:10:01.927Z,7.16
2019-04-14T09:11:01.909Z,6.97
2019-04-14T09:12:14.509Z,6.70
2019-04-14T09:13:02.881Z,6.69
2019-04-14T09:14:01.895Z,6.87
2019-04-14T09:15:01.864Z,6.87
2019-04-14T09:16:01.847Z,6.69
2019-04-14T09:17:01.931Z,6.74
2019-04-14T09:18:01.849Z,6.79
2019-04-14T09:19:07.387Z,7.07
2019-04-14T09:20:02.825Z,7.23
2019-04-14T09:21:01.791Z,7.10
2019-04-14T09:22:01.782Z,7.28
2019-04-14T09:23:01.777Z,7.25
2019-04-14T09:24:01.770Z,7.24
2019-04-14T09:25:01.772Z,7.45
2019-04-14T09:26:01.736Z,7.30
2019-04-14T09:27:01.722Z,7.27
2019-04-14T09:28:01.720Z,7.23
2019-04-14T09:29:01.719Z,7.35
2019-04-14T09:30:01.734Z,7.31
2019-04-14T09:31:01.691Z,6.94
2019-04-14T09:32:01.668Z,6.80
2019-04-14T09:33:01.680Z,6.79
2019-04-14T09:34:01.646Z,6.87
2019-04-14T09:35:01.764Z,6.98
2019-04-14T09:36:01.657Z,7.24
2019-04-14T09:37:01.609Z,7.23
2019-04-14T09:38:01.615Z,7.06
2019-04-14T09:39:01.590Z,6.97
2019-04-14T09:40:01.577Z,7.09
2019-04-14T09:41:01.570Z,7.25
2019-04-14T09:42:01.577Z,7.12
2019-04-14T09:43:01.547Z,7.09
2019-04-14T09:44:01.551Z,7.20
2019-04-14T09:45:01.530Z,7.55
2019-04-14T09:46:01.510Z,7.49
2019-04-14T09:47:01.526Z,7.25
2019-04-14T09:48:01.509Z,7.43
2019-04-14T09:49:01.475Z,7.48
2019-04-14T09:50:01.464Z,7.53
2019-04-14T09:51:04.937Z,7.60
2019-04-14T09:52:01.468Z,7.64
2019-04-14T09:53:01.460Z,7.68
2019-04-14T09:54:01.845Z,7.64
2019-04-14T09:55:01.412Z,7.90
2019-04-14T09:56:01.419Z,7.92
2019-04-14T09:57:01.384Z,7.90
2019-04-14T09:58:01.414Z,7.90
2019-04-14T09:59:01.365Z,7.85
2019-04-14T10:00:01.351Z,7.87
2019-04-14T10:01:01.341Z,7.52
2019-04-14T10:02:01.353Z,7.49
2019-04-14T10:03:01.351Z,7.35
2019-04-14T10:04:01.335Z,7.42
2019-04-14T10:05:01.296Z,7.43
2019-04-14T10:06:01.289Z,7.58
2019-04-14T10:07:01.272Z,7.58
2019-04-14T10:08:01.311Z,7.49
2019-04-14T10:09:01.302Z,7.53
2019-04-14T10:10:01.243Z,7.55
2019-04-14T10:11:01.230Z,7.50
2019-04-14T10:12:01.217Z,7.49
2019-04-14T10:13:01.269Z,7.42
2019-04-14T10:14:01.194Z,7.28
2019-04-14T10:15:01.184Z,7.27
2019-04-14T10:16:01.196Z,7.31
2019-04-14T10:17:01.690Z,7.34
2019-04-14T10:18:01.167Z,7.24
2019-04-14T10:19:01.164Z,7.21
2019-04-14T10:20:01.161Z,7.17
2019-04-14T10:21:01.130Z,7.07
2019-04-14T10:22:01.106Z,6.88
2019-04-14T10:23:01.096Z,6.92
2019-04-14T10:24:01.140Z,6.94
2019-04-14T10:25:01.068Z,6.97
2019-04-14T10:26:01.065Z,7.10
2019-04-14T10:27:01.108Z,6.91
2019-04-14T10:28:01.033Z,6.88
2019-04-14T10:29:01.023Z,6.91
2019-04-14T10:30:01.049Z,6.95
2019-04-14T10:31:01.027Z,6.98
2019-04-14T10:32:00.992Z,6.94
2019-04-14T10:33:00.980Z,6.77
2019-04-14T10:34:00.969Z,6.80
2019-04-14T10:35:00.982Z,6.79
2019-04-14T10:36:00.944Z,6.79
2019-04-14T10:37:00.936Z,6.85
2019-04-14T10:38:00.936Z,6.92
2019-04-14T10:39:00.911Z,6.85
2019-04-14T10:40:00.921Z,6.77
2019-04-14T10:41:00.916Z,6.85
2019-04-14T10:42:00.907Z,6.79
2019-04-14T10:43:00.869Z,6.84
2019-04-14T10:44:00.879Z,6.81
2019-04-14T10:45:00.853Z,6.71
2019-04-14T10:46:00.836Z,6.92
2019-04-14T10:47:00.823Z,7.06
2019-04-14T10:48:00.860Z,7.17
2019-04-14T10:49:00.797Z,7.30
2019-04-14T10:50:00.807Z,7.31
2019-04-14T10:51:00.776Z,7.31
2019-04-14T10:52:00.815Z,7.32
2019-04-14T10:53:00.777Z,7.30
2019-04-14T10:54:00.743Z,7.23
2019-04-14T10:55:00.730Z,7.21
2019-04-14T10:56:00.722Z,7.32
2019-04-14T10:57:01.176Z,7.32
2019-04-14T10:58:00.733Z,7.28
2019-04-14T10:59:00.708Z,7.31
2019-04-14T11:00:00.673Z,7.40
2019-04-14T11:01:00.664Z,7.46
2019-04-14T11:02:00.675Z,7.45
2019-04-14T11:03:00.639Z,7.63
2019-04-14T11:04:00.629Z,7.60
2019-04-14T11:05:00.623Z,7.61
2019-04-14T11:06:00.624Z,7.64
2019-04-14T11:07:00.632Z,7.71
2019-04-14T11:08:00.582Z,7.71
2019-04-14T11:09:00.577Z,7.64
2019-04-14T11:10:00.560Z,7.63
2019-04-14T11:11:00.548Z,7.35
2019-04-14T11:12:00.590Z,6.98
2019-04-14T11:13:00.550Z,7.02
2019-04-14T11:14:00.519Z,6.98
2019-04-14T11:15:00.504Z,6.81
2019-04-14T11:16:00.495Z,6.76
2019-04-14T11:17:00.496Z,6.62
2019-04-14T11:18:00.494Z,6.61
2019-04-14T11:19:00.492Z,6.69
2019-04-14T11:20:00.447Z,6.48
2019-04-14T11:21:00.467Z,6.46
2019-04-14T11:22:00.426Z,6.36
2019-04-14T11:23:03.382Z,6.30
2019-04-14T11:24:00.403Z,6.19
2019-04-14T11:25:00.396Z,6.12
2019-04-14T11:26:00.406Z,6.08
2019-04-14T11:27:00.369Z,6.09
2019-04-14T11:28:00.384Z,6.11
2019-04-14T11:29:00.350Z,6.17
2019-04-14T11:30:00.335Z,6.28
2019-04-14T11:31:00.326Z,6.44
2019-04-14T11:32:00.314Z,6.17
2019-04-14T11:33:00.349Z,6.19
2019-04-14T11:34:00.293Z,6.14
2019-04-14T11:35:00.279Z,6.15
2019-04-14T11:36:00.270Z,6.14
2019-04-14T11:37:00.267Z,5.96
2019-04-14T11:38:00.284Z,6.08
2019-04-14T11:39:00.237Z,6.19
2019-04-14T11:40:00.223Z,6.09
2019-04-14T11:41:00.227Z,6.03
2019-04-14T11:42:00.231Z,5.99
2019-04-14T11:43:00.189Z,6.06
2019-04-14T11:44:00.199Z,5.91
2019-04-14T11:45:00.191Z,5.93
2019-04-14T11:46:03.222Z,5.97
2019-04-14T11:47:00.182Z,6.01
2019-04-14T11:48:00.134Z,6.04
2019-04-14T11:49:00.124Z,5.89
2019-04-14T11:50:00.144Z,6.08
2019-04-14T11:51:00.102Z,6.12
2019-04-14T11:52:00.087Z,5.99
2019-04-14T11:53:00.112Z,6.11
2019-04-14T11:54:00.066Z,6.04
2019-04-14T11:55:00.090Z,6.00
2019-04-14T11:56:00.042Z,6.18
2019-04-14T11:57:00.032Z,6.22
2019-04-14T11:58:00.026Z,6.06
2019-04-14T11:59:00.022Z,6.03
2019-04-14T12:00:00.044Z,5.94
2019-04-14T12:00:59.986Z,6.00
2019-04-14T12:02:00.000Z,6.04
2019-04-14T12:02:59.988Z,6.31
2019-04-14T12:03:59.953Z,6.18
2019-04-14T12:04:59.945Z,6.27
2019-04-14T12:05:59.961Z,6.18
2019-04-14T12:06:59.942Z,6.08
2019-04-14T12:07:59.910Z,5.96
2019-04-14T12:08:59.901Z,6.04
2019-04-14T12:09:59.887Z,5.96
2019-04-14T12:10:59.905Z,5.94
2019-04-14T12:11:59.863Z,6.03
2019-04-14T12:12:59.853Z,6.15
2019-04-14T12:13:59.843Z,6.17
2019-04-14T12:14:59.856Z,6.14
2019-04-14T12:15:59.852Z,6.11
2019-04-14T12:16:59.808Z,6.41
2019-04-14T12:17:59.798Z,6.49
2019-04-14T12:18:59.786Z,6.49
2019-04-14T12:19:59.810Z,6.74
2019-04-14T12:20:59.772Z,6.92
2019-04-14T12:22:08.112Z,7.09
2019-04-14T12:23:00.738Z,6.95
2019-04-14T12:23:59.738Z,6.88
2019-04-14T12:24:59.742Z,6.77
2019-04-14T12:26:05.579Z,6.73
2019-04-14T12:27:00.694Z,6.41
2019-04-14T12:28:00.351Z,6.22
2019-04-14T12:29:02.013Z,6.34
2019-04-14T12:30:00.956Z,6.46
2019-04-14T12:30:59.812Z,6.51
2019-04-14T12:31:59.719Z,6.43
2019-04-14T12:32:59.629Z,6.44
2019-04-14T12:33:59.624Z,6.43
2019-04-14T12:34:59.605Z,6.49
2019-04-14T12:35:59.617Z,6.30
2019-04-14T12:36:59.597Z,6.22
2019-04-14T12:37:59.570Z,6.21
2019-04-14T12:38:59.564Z,6.19
2019-04-14T12:39:59.551Z,6.28
2019-04-14T12:41:02.068Z,6.27
2019-04-14T12:41:59.549Z,6.06
2019-04-14T12:42:59.540Z,6.18
2019-04-14T12:43:59.506Z,5.94
2019-04-14T12:44:59.491Z,5.97
2019-04-14T12:45:59.513Z,6.14
2019-04-14T12:46:59.491Z,5.96
2019-04-14T12:47:59.469Z,5.94
2019-04-14T12:48:59.474Z,5.89
2019-04-14T12:49:59.440Z,6.04
2019-04-14T12:50:59.450Z,5.96
2019-04-14T12:51:59.413Z,5.99
2019-04-14T12:52:59.433Z,6.15
2019-04-14T12:53:59.393Z,6.12
2019-04-14T12:54:59.408Z,6.17
2019-04-14T12:55:59.395Z,6.11
2019-04-14T12:56:59.360Z,6.18
2019-04-14T12:57:59.346Z,6.00
2019-04-14T12:58:59.346Z,5.93
2019-04-14T12:59:59.341Z,5.83
2019-04-14T13:00:59.314Z,5.72
2019-04-14T13:01:59.306Z,5.72
2019-04-14T13:02:59.303Z,5.71
2019-04-14T13:03:59.310Z,5.83
2019-04-14T13:04:59.271Z,5.94
2019-04-14T13:05:59.258Z,5.97
2019-04-14T13:06:59.249Z,5.93
2019-04-14T13:07:59.234Z,5.83
2019-04-14T13:08:59.297Z,5.71
2019-04-14T13:09:59.241Z,5.67
2019-04-14T13:10:59.204Z,5.99
2019-04-14T13:11:59.193Z,5.76
2019-04-14T13:12:59.244Z,5.61
2019-04-14T13:13:59.181Z,5.64
2019-04-14T13:14:59.184Z,5.65
2019-04-14T13:15:59.170Z,5.76
2019-04-14T13:16:59.151Z,5.82
2019-04-14T13:17:59.123Z,5.76
2019-04-14T13:18:59.111Z,5.65
2019-04-14T13:19:59.100Z,5.64
2019-04-14T13:20:59.105Z,5.76
2019-04-14T13:21:59.087Z,5.76
2019-04-14T13:22:59.072Z,5.68
2019-04-14T13:23:59.078Z,5.81
2019-04-14T13:24:59.043Z,5.91
2019-04-14T13:25:59.034Z,5.96
2019-04-14T13:26:59.022Z,5.93
2019-04-14T13:27:59.035Z,5.78
2019-04-14T13:28:59.020Z,5.79
2019-04-14T13:29:58.991Z,5.49
2019-04-14T13:30:59.005Z,5.43
2019-04-14T13:31:58.968Z,5.48
2019-04-14T13:32:58.953Z,5.45